Time;durP1;ratioP1;P1;durP2;ratioP2;P2;SDS_P1;SDS_P2;PMS_P1;PMS_P2;Temp;Humidity;BMP_temperature;BMP_pressure;BME280_temperature;BME280_humidity;BME280_pressure;Samples;Min_cycle;Max_cycle;Signal;HPM_P1;HPM_P2
2023/07/05 00:01:00;;;;;;;3.22;2.90;;;21.10;52.60;;;22.41;42.62;97192.41;5033235;28;20056;-44
2023/07/05 00:03:27;;;;;;;3.60;2.40;;;21.10;52.40;;;22.43;42.51;97203.84;5033461;28;20049;-42
2023/07/05 00:05:55;;;;;;;2.40;2.13;;;21.10;52.50;;;22.45;42.53;97185.44;5033653;28;20037;-43
2023/07/05 00:08:23;;;;;;;4.45;2.60;;;21.10;52.50;;;22.44;42.50;97186.50;5033256;28;20042;-44
2023/07/05 00:11:03;;;;;;;2.65;2.25;;;21.10;52.60;;;22.46;42.49;97191.69;5033112;28;20497;-41
2023/07/05 00:13:31;;;;;;;3.38;2.00;;;21.10;52.80;;;22.48;42.54;97179.50;5048787;28;20440;-41
2023/07/05 00:15:59;;;;;;;3.10;2.40;;;21.10;52.60;;;22.51;42.13;97180.91;5032103;28;20142;-42
2023/07/05 00:18:28;;;;;;;2.47;2.10;;;21.10;52.50;;;22.52;42.20;97177.13;5033017;28;20042;-41
2023/07/05 00:21:01;;;;;;;3.42;3.13;;;21.10;52.60;;;22.52;42.37;97174.41;5032809;28;20049;-40
2023/07/05 00:23:33;;;;;;;3.00;2.15;;;21.00;52.80;;;22.48;42.19;97174.09;5031909;28;20049;-41
2023/07/05 00:26:03;;;;;;;3.03;2.17;;;20.90;52.90;;;22.46;42.02;97172.69;5032926;28;20045;-43
2023/07/05 00:28:34;;;;;;;2.58;2.30;;;20.90;53.00;;;22.41;42.34;97173.44;5033074;28;20060;-40
2023/07/05 00:31:03;;;;;;;3.58;2.95;;;20.80;53.40;;;22.34;42.57;97170.09;5031224;28;20049;-42
2023/07/05 00:33:32;;;;;;;2.97;2.38;;;20.70;53.90;;;22.28;42.70;97169.19;5015081;28;20045;-45
2023/07/05 00:36:00;;;;;;;3.53;2.35;;;20.60;53.80;;;22.25;42.72;97168.84;5032779;28;20037;-41
2023/07/05 00:38:28;;;;;;;3.83;2.55;;;20.60;54.10;;;22.19;43.19;97167.91;5032687;28;20505;-43
2023/07/05 00:40:55;;;;;;;3.60;2.15;;;20.60;54.30;;;22.23;42.82;97161.75;5031049;28;20057;-41
2023/07/05 00:43:23;;;;;;;3.25;2.10;;;20.60;53.90;;;22.26;42.93;97155.06;5033009;28;20041;-41
2023/07/05 00:46:01;;;;;;;4.75;2.15;;;20.70;53.80;;;22.29;42.90;97153.72;5032428;28;20068;-43
2023/07/05 00:48:34;;;;;;;2.88;2.30;;;20.80;53.50;;;22.30;42.53;97152.69;5031395;28;20057;-41
2023/07/05 00:51:11;;;;;;;2.93;2.17;;;20.80;53.50;;;22.30;42.80;97142.66;5032349;28;20417;-44
2023/07/05 00:53:38;;;;;;;4.25;2.40;;;20.80;53.30;;;22.31;42.54;97144.28;5031091;28;20448;-40
2023/07/05 00:56:32;;;;;;;3.00;2.20;;;20.80;53.30;;;22.30;42.74;97139.13;5030633;28;20428;-44
2023/07/05 00:59:01;;;;;;;3.28;2.25;;;20.90;53.20;;;22.31;42.54;97135.31;5031337;28;20048;-44
2023/07/05 01:01:29;;;;;;;3.85;2.22;;;20.90;52.90;;;22.29;42.54;97135.56;5031438;28;20522;-44
2023/07/05 01:03:59;;;;;;;3.47;2.10;;;20.90;52.80;;;22.31;42.79;97140.75;5031271;28;20412;-41
2023/07/05 01:06:27;;;;;;;3.13;2.38;;;20.90;52.90;;;22.31;42.85;97138.03;5032566;28;20045;-46
2023/07/05 01:08:55;;;;;;;3.25;2.13;;;20.90;52.90;;;22.30;42.93;97150.78;5028801;28;20045;-42
2023/07/05 01:11:59;;;;;;;3.88;2.15;;;20.90;53.00;;;22.28;42.82;97155.63;5030172;28;20052;-43
2023/07/05 01:14:35;;;;;;;3.40;1.98;;;20.80;53.10;;;22.29;42.76;97151.03;5025278;28;20056;-41
2023/07/05 01:17:30;;;;;;;10.45;2.90;;;20.80;53.30;;;22.20;43.05;97159.56;5031216;28;20060;-42
2023/07/05 01:20:10;;;;;;;3.35;2.38;;;20.80;53.60;;;22.13;43.30;97188.69;5030710;28;20053;-53
2023/07/05 01:23:20;;;;;;;5.88;2.30;;;20.70;54.00;;;21.99;44.07;97163.81;5031956;28;20053;-54
2023/07/05 01:26:15;;;;;;;3.33;2.22;;;20.60;54.50;;;22.00;43.74;97151.09;5012431;28;20504;-51
2023/07/05 01:29:35;;;;;;;3.25;2.45;;;20.50;54.70;;;22.01;43.62;97150.03;5026486;28;20049;-55
2023/07/05 01:33:06;;;;;;;3.78;2.10;;;20.50;55.40;;;21.98;43.79;97145.09;5028946;28;20076;-53
2023/07/05 01:35:44;;;;;;;3.05;2.33;;;20.50;56.30;;;22.01;44.04;97144.59;5006555;28;20053;-52
2023/07/05 01:38:13;;;;;;;4.05;2.20;;;20.40;56.20;;;22.02;44.20;97144.38;4992967;28;20057;-53
2023/07/05 01:41:05;;;;;;;2.25;1.83;;;20.50;56.40;;;22.01;44.72;97144.59;5018792;28;20046;-53
2023/07/05 01:43:39;;;;;;;3.22;2.92;;;20.40;57.40;;;22.02;44.49;97144.38;5025067;28;20045;-55
2023/07/05 01:46:17;;;;;;;2.83;2.05;;;20.40;56.80;;;21.92;44.71;97167.75;5030426;28;20497;-51
2023/07/05 01:49:03;;;;;;;3.15;2.38;;;20.30;57.90;;;21.67;45.43;97187.09;5030941;28;20104;-54
2023/07/05 01:51:41;;;;;;;3.10;2.80;;;20.00;58.40;;;21.48;46.28;97208.13;5025840;28;20057;-54
2023/07/05 01:55:04;;;;;;;3.28;2.53;;;19.80;59.40;;;21.23;47.16;97210.09;5031034;28;20053;-54
2023/07/05 01:57:54;;;;;;;2.65;2.13;;;19.50;62.30;;;21.21;47.47;97195.97;4999957;28;20050;-55
2023/07/05 02:00:25;;;;;;;2.72;2.22;;;19.40;63.80;;;21.20;47.56;97199.72;4977888;28;20185;-53
2023/07/05 02:03:05;;;;;;;5.40;2.30;;;19.40;62.90;;;21.07;48.30;97194.59;5008966;28;20049;-54
2023/07/05 02:05:34;;;;;;;3.80;2.20;;;19.30;64.40;;;21.12;48.39;97210.13;5024201;28;20037;-55
2023/07/05 02:08:02;;;;;;;3.33;2.30;;;19.30;63.20;;;21.08;48.15;97207.06;5029937;28;20493;-55
2023/07/05 02:10:31;;;;;;;2.65;2.20;;;19.30;63.60;;;20.99;48.83;97222.03;5029275;28;20038;-52
2023/07/05 02:13:03;;;;;;;3.40;2.20;;;19.30;64.10;;;20.99;48.66;97227.44;5031844;28;20045;-52
2023/07/05 02:15:32;;;;;;;3.45;2.42;;;19.30;64.30;;;21.07;48.91;97234.38;5029038;28;20053;-54
2023/07/05 02:18:00;;;;;;;2.30;1.95;;;19.30;64.30;;;21.12;48.53;97231.78;5030345;28;20048;-51
2023/07/05 02:20:31;;;;;;;2.55;1.98;;;19.40;64.00;;;21.14;48.97;97222.34;5029885;28;20053;-53
2023/07/05 02:22:59;;;;;;;2.53;2.05;;;19.50;64.60;;;21.03;49.25;97221.31;5029690;28;20060;-51
2023/07/05 02:25:28;;;;;;;2.00;1.80;;;19.40;65.10;;;21.12;49.47;97229.06;5030417;28;20045;-52
2023/07/05 02:27:56;;;;;;;4.38;2.15;;;19.40;65.20;;;21.14;49.24;97233.16;5029687;28;20046;-54
2023/07/05 02:30:26;;;;;;;2.95;2.40;;;19.40;65.40;;;21.18;49.31;97206.47;5030698;28;20045;-54
2023/07/05 02:32:53;;;;;;;3.75;2.30;;;19.50;66.20;;;21.18;49.93;97218.09;5029790;28;20038;-54
2023/07/05 02:35:21;;;;;;;2.95;2.17;;;19.40;66.70;;;21.20;49.85;97202.44;5029743;28;20045;-55
2023/07/05 02:37:49;;;;;;;3.63;2.25;;;19.40;66.80;;;21.22;50.00;97200.31;5029832;28;20054;-53
2023/07/05 02:40:17;;;;;;;3.42;2.35;;;19.40;67.40;;;21.20;49.87;97197.03;5030628;28;20049;-54
2023/07/05 02:42:45;;;;;;;3.38;1.83;;;19.40;67.50;;;21.25;49.94;97199.03;5030329;28;20389;-54
2023/07/05 02:45:13;;;;;;;2.60;1.77;;;19.40;67.50;;;21.23;50.33;97193.84;5029515;28;20428;-54
2023/07/05 02:47:40;;;;;;;4.30;2.10;;;19.40;67.30;;;21.26;49.95;97199.84;5029533;28;20057;-52
2023/07/05 02:50:09;;;;;;;2.45;1.75;;;19.50;67.30;;;21.26;50.07;97197.13;5030520;28;20055;-54
2023/07/05 02:52:37;;;;;;;4.15;2.47;;;19.50;67.30;;;21.23;50.08;97188.44;5029456;28;20049;-53
2023/07/05 02:55:05;;;;;;;2.47;1.80;;;19.40;67.20;;;21.22;49.95;97186.78;5029695;28;20429;-53
2023/07/05 02:57:32;;;;;;;3.10;2.33;;;19.40;67.20;;;21.21;50.16;97190.56;5031421;28;20049;-51
2023/07/05 03:00:00;;;;;;;3.80;2.28;;;19.40;67.10;;;21.20;50.18;97188.91;5029274;28;20416;-52
2023/07/05 03:02:28;;;;;;;4.95;2.40;;;19.40;66.70;;;21.20;49.56;97177.25;5031020;28;20041;-52
2023/07/05 03:05:08;;;;;;;3.53;2.30;;;19.50;66.10;;;21.17;49.31;97188.56;5029406;28;20076;-51
2023/07/05 03:07:36;;;;;;;3.92;2.40;;;19.60;65.80;;;21.17;49.66;97183.13;5024170;28;20052;-55
2023/07/05 03:10:07;;;;;;;3.58;2.28;;;19.50;65.30;;;21.19;49.40;97191.84;5030231;28;20037;-55
2023/07/05 03:12:35;;;;;;;2.60;2.20;;;19.60;65.10;;;21.17;49.44;97189.41;5030995;28;20068;-54
2023/07/05 03:15:03;;;;;;;4.90;2.55;;;19.50;65.20;;;21.17;49.38;97189.41;5028621;28;20045;-55
2023/07/05 03:17:31;;;;;;;4.70;2.15;;;19.50;65.20;;;21.15;49.52;97188.81;5029216;28;20046;-53
2023/07/05 03:20:00;;;;;;;2.60;1.90;;;19.50;65.50;;;21.15;49.51;97190.69;5030619;28;20072;-50
2023/07/05 03:22:28;;;;;;;2.30;1.73;;;19.50;65.30;;;21.13;49.66;97190.94;5022987;28;20045;-55
2023/07/05 03:24:55;;;;;;;2.85;2.58;;;19.50;65.20;;;21.12;49.62;97193.88;5033322;28;20053;-53
2023/07/05 03:27:23;;;;;;;2.42;1.80;;;19.40;65.30;;;21.08;49.51;97190.03;5032801;28;20155;-54
2023/07/05 03:29:51;;;;;;;2.80;2.03;;;19.30;65.70;;;21.05;49.54;97194.00;5032743;28;20046;-54
2023/07/05 03:32:19;;;;;;;2.72;1.90;;;19.30;65.70;;;21.01;49.77;97192.84;5034334;28;20053;-55
2023/07/05 03:34:47;;;;;;;3.00;1.70;;;19.30;66.10;;;20.98;49.75;97191.44;5033296;28;20497;-55
2023/07/05 03:37:15;;;;;;;4.18;1.55;;;19.20;66.00;;;20.97;49.97;97200.59;5033402;28;20425;-55
2023/07/05 03:39:44;;;;;;;2.88;1.67;;;19.30;65.90;;;20.92;50.03;97200.53;5033690;28;20046;-56
2023/07/05 03:42:11;;;;;;;2.50;1.95;;;19.20;66.00;;;20.88;50.16;97212.03;5034023;28;20041;-54
2023/07/05 03:44:40;;;;;;;4.07;2.55;;;19.20;66.40;;;20.87;49.79;97205.81;5033871;28;20037;-49
2023/07/05 03:47:07;;;;;;;2.08;1.55;;;19.20;66.50;;;20.90;50.02;97209.91;5034015;28;20476;-53
2023/07/05 03:49:35;;;;;;;4.00;1.60;;;19.20;66.40;;;20.90;50.26;97209.91;5033579;28;20045;-55
2023/07/05 03:52:03;;;;;;;1.83;1.35;;;19.20;66.70;;;20.87;50.14;97210.41;5032590;28;20046;-55
2023/07/05 03:54:30;;;;;;;1.98;1.52;;;19.20;67.40;;;20.88;50.61;97209.34;5025879;28;20508;-52
2023/07/05 03:56:58;;;;;;;2.75;1.73;;;19.20;67.20;;;20.88;50.61;97207.47;5033400;28;20041;-52
2023/07/05 03:59:26;;;;;;;2.65;1.45;;;19.20;67.40;;;20.87;50.92;97213.94;5032501;28;20038;-42
2023/07/05 04:01:55;;;;;;;2.05;1.63;;;19.20;67.60;;;20.87;50.78;97213.94;5034424;28;20045;-54
2023/07/05 04:04:23;;;;;;;2.05;1.70;;;19.10;67.90;;;20.89;50.76;97214.50;5032530;28;20049;-52
2023/07/05 04:06:50;;;;;;;2.38;1.80;;;19.20;67.60;;;20.88;51.03;97221.00;5032065;28;20056;-54
2023/07/05 04:09:18;;;;;;;2.20;2.00;;;19.20;67.90;;;20.89;50.63;97224.53;5033068;28;20056;-56
2023/07/05 04:11:46;;;;;;;2.63;1.80;;;19.20;68.10;;;20.92;50.85;97219.47;5031164;28;20034;-55
2023/07/05 04:14:13;;;;;;;2.75;1.80;;;19.30;68.10;;;20.94;51.01;97217.34;5033416;28;20052;-51
2023/07/05 04:16:41;;;;;;;2.75;2.08;;;19.30;68.20;;;20.93;51.19;97215.69;5033255;28;20049;-53
2023/07/05 04:19:09;;;;;;;2.72;1.92;;;19.30;68.20;;;20.95;51.31;97216.25;5033075;28;20042;-51
2023/07/05 04:21:37;;;;;;;3.67;1.90;;;19.40;68.00;;;20.96;51.07;97209.00;5033257;28;20425;-53
2023/07/05 04:24:05;;;;;;;3.30;2.10;;;19.40;68.30;;;20.95;51.61;97205.44;5032907;28;20049;-52
2023/07/05 04:26:32;;;;;;;3.03;2.05;;;19.40;68.50;;;20.96;51.16;97206.28;5033149;28;20041;-52
2023/07/05 04:29:00;;;;;;;2.50;1.55;;;19.30;68.80;;;20.97;51.59;97206.03;5031817;28;20068;-55
2023/07/05 04:31:29;;;;;;;5.60;2.00;;;19.40;68.50;;;20.88;51.96;97202.06;5032604;28;20428;-53
2023/07/05 04:33:58;;;;;;;5.70;2.47;;;19.40;68.60;;;20.85;51.80;97200.63;5031549;28;20052;-54
2023/07/05 04:36:27;;;;;;;3.28;1.95;;;19.50;68.40;;;20.83;52.17;97201.94;5031431;28;20493;-54
2023/07/05 04:38:57;;;;;;;4.10;2.10;;;19.50;68.10;;;20.83;51.80;97200.06;5031660;28;20045;-54
2023/07/05 04:41:25;;;;;;;4.43;2.00;;;19.40;68.50;;;20.82;52.03;97201.13;5030956;28;20050;-54
2023/07/05 04:43:53;;;;;;;4.63;1.80;;;19.40;68.50;;;20.81;51.84;97190.53;5031677;28;20042;-53
2023/07/05 04:46:22;;;;;;;1.95;1.70;;;19.40;68.50;;;20.77;52.08;97189.38;5032734;28;20053;-54
2023/07/05 04:48:50;;;;;;;2.63;2.20;;;19.40;68.50;;;20.69;52.08;97185.16;5032650;28;20504;-53
2023/07/05 04:51:18;;;;;;;3.75;2.10;;;19.40;68.30;;;20.65;52.17;97182.09;5032208;28;20397;-53
2023/07/05 04:53:46;;;;;;;4.65;2.55;;;19.40;68.10;;;20.69;52.22;97181.63;5032674;28;20044;-52
2023/07/05 04:56:15;;;;;;;3.47;1.85;;;19.40;68.20;;;20.70;52.26;97178.66;5031211;28;20041;-54
2023/07/05 04:58:42;;;;;;;6.95;2.38;;;19.40;68.30;;;20.66;52.81;97180.19;5031089;28;20049;-54
2023/07/05 05:01:13;;;;;;;3.03;2.03;;;19.40;68.70;;;20.67;52.63;97173.75;5032271;28;20051;-52
2023/07/05 05:03:41;;;;;;;4.25;2.10;;;19.40;69.50;;;20.60;53.19;97163.03;5025053;28;20038;-54
2023/07/05 05:06:09;;;;;;;3.60;2.20;;;19.40;69.20;;;20.56;53.35;97159.13;5032642;28;20045;-54
2023/07/05 05:08:37;;;;;;;2.67;2.20;;;19.40;69.40;;;20.54;53.64;97149.63;5024294;28;20041;-53
2023/07/05 05:11:06;;;;;;;5.07;2.38;;;19.40;69.80;;;20.57;53.60;97151.84;5030835;28;20056;-54
2023/07/05 05:13:35;;;;;;;2.38;2.00;;;19.40;69.60;;;20.61;53.72;97161.19;5032065;28;20052;-54
2023/07/05 05:16:03;;;;;;;3.60;2.30;;;19.50;69.60;;;20.67;53.44;97162.13;5032110;28;20037;-55
2023/07/05 05:18:33;;;;;;;3.35;2.03;;;19.50;69.70;;;20.72;53.75;97165.72;5031977;28;20049;-53
2023/07/05 05:21:01;;;;;;;3.45;1.85;;;19.50;69.90;;;20.78;53.26;97175.63;5031908;28;20048;-55
2023/07/05 05:23:29;;;;;;;5.28;2.75;;;19.50;69.80;;;20.87;53.33;97164.41;5031978;28;20416;-53
2023/07/05 05:25:58;;;;;;;3.17;1.92;;;19.60;70.10;;;20.98;53.48;97166.28;5031759;28;20417;-54
2023/07/05 05:28:25;;;;;;;2.40;1.88;;;19.70;70.20;;;21.09;53.27;97168.09;5031810;28;20041;-54
2023/07/05 05:31:06;;;;;;;3.08;2.03;;;19.80;69.90;;;21.20;53.06;97166.44;5030515;28;20048;-53
2023/07/05 05:33:35;;;;;;;3.15;1.83;;;19.90;69.70;;;21.26;52.81;97167.34;5031877;28;20061;-54
2023/07/05 05:36:03;;;;;;;4.28;2.05;;;20.00;69.30;;;21.26;52.80;97176.28;5030545;28;20531;-54
2023/07/05 05:38:35;;;;;;;1.98;1.70;;;20.10;70.00;;;21.32;53.09;97182.63;5031684;28;20068;-56
2023/07/05 05:41:10;;;;;;;2.67;2.22;;;20.10;69.00;;;21.36;52.91;97190.00;5031466;28;20156;-53
2023/07/05 05:43:39;;;;;;;3.63;2.22;;;20.10;68.80;;;21.42;52.84;97194.50;5030290;28;20144;-56
2023/07/05 05:46:07;;;;;;;4.05;2.03;;;20.20;68.70;;;21.46;52.73;97202.16;5030760;28;20050;-55
2023/07/05 05:48:36;;;;;;;2.80;2.25;;;20.20;68.60;;;21.50;52.69;97212.28;5031128;28;20045;-52
2023/07/05 05:51:04;;;;;;;3.15;2.53;;;20.20;68.60;;;21.52;52.93;97220.97;5031355;28;20424;-54
2023/07/05 05:53:31;;;;;;;5.88;2.03;;;20.30;68.70;;;21.51;52.50;97218.50;5031343;28;20108;-55
2023/07/05 05:55:59;;;;;;;3.15;1.60;;;20.20;68.80;;;21.51;53.21;97232.84;5031727;28;20049;-55
2023/07/05 05:58:26;;;;;;;3.45;2.00;;;20.20;69.40;;;21.54;53.28;97248.63;5030995;28;20041;-55
2023/07/05 06:00:54;;;;;;;3.92;2.45;;;20.10;71.30;;;21.50;54.94;97260.16;5031032;28;20050;-55
2023/07/05 06:03:22;;;;;;;4.32;2.78;;;20.00;75.90;;;21.14;56.32;97268.34;5031028;28;20046;-53
2023/07/05 06:05:51;;;;;;;6.68;2.85;;;19.50;82.80;;;20.69;58.17;97260.06;5031437;28;20551;-57
2023/07/05 06:08:18;;;;;;;5.55;2.90;;;18.90;92.30;;;20.34;59.07;97267.06;5031144;28;20413;-55
2023/07/05 06:10:58;;;;;;;3.15;2.13;;;18.50;97.10;;;20.11;61.20;97261.59;5030716;28;20501;-53
2023/07/05 06:13:27;;;;;;;2.65;1.70;;;18.30;99.90;;;19.86;60.76;97263.41;5031054;28;20056;-53
2023/07/05 06:15:57;;;;;;;4.47;2.20;;;18.10;99.90;;;19.86;60.40;97271.50;5029275;28;20060;-54
2023/07/05 06:18:40;;;;;;;2.85;1.90;;;18.10;99.90;;;19.56;62.01;97279.59;5031047;28;20038;-53
2023/07/05 06:21:11;;;;;;;3.97;2.10;;;17.90;99.90;;;19.49;61.50;97276.13;5030908;28;20412;-53
2023/07/05 06:23:39;;;;;;;2.75;2.00;;;17.80;99.90;;;19.47;61.58;97283.66;5031572;28;20053;-51
2023/07/05 06:26:06;;;;;;;3.00;2.15;;;17.70;99.90;;;19.57;61.21;97292.03;5029851;28;20053;-53
2023/07/05 06:28:34;;;;;;;2.50;1.73;;;17.80;99.90;;;19.66;61.33;97292.53;5013319;28;20053;-53
2023/07/05 06:31:09;;;;;;;3.50;2.03;;;18.00;99.90;;;19.81;61.23;97298.41;5029440;28;20508;-54
2023/07/05 06:33:39;;;;;;;3.10;2.00;;;18.10;99.90;;;19.81;61.42;97302.94;5030918;28;20292;-54
2023/07/05 06:36:08;;;;;;;2.28;1.70;;;18.20;99.90;;;19.89;60.91;97299.94;5029880;28;20440;-54
2023/07/05 06:38:36;;;;;;;3.15;1.55;;;18.20;99.90;;;19.95;60.53;97303.59;5030758;28;20049;-55
2023/07/05 06:41:04;;;;;;;3.30;1.88;;;18.20;99.90;;;19.86;59.96;97303.91;5030677;28;20045;-56
2023/07/05 06:43:32;;;;;;;2.70;1.75;;;18.20;99.90;;;19.78;60.68;97312.34;5030866;28;20050;-53
2023/07/05 06:45:59;;;;;;;2.75;1.50;;;18.20;99.90;;;19.86;60.79;97317.44;5029591;28;20068;-54
2023/07/05 06:48:27;;;;;;;3.20;2.30;;;18.20;99.90;;;19.89;60.29;97318.00;5012721;28;20053;-56
2023/07/05 06:50:56;;;;;;;3.47;1.85;;;18.20;99.90;;;19.93;60.30;97311.94;5030526;28;20045;-56
2023/07/05 06:53:24;;;;;;;6.53;1.63;;;18.20;99.90;;;20.00;60.25;97317.25;5030740;28;20060;-54
2023/07/05 06:55:56;;;;;;;3.38;1.80;;;18.30;99.90;;;19.99;60.27;97329.94;5030681;28;20208;-53
2023/07/05 06:58:23;;;;;;;3.28;1.75;;;18.20;99.90;;;19.99;60.34;97331.81;5033187;28;20420;-53
2023/07/05 07:00:51;;;;;;;2.90;1.77;;;18.20;99.90;;;19.96;60.49;97335.78;5034435;28;20042;-55
2023/07/05 07:03:19;;;;;;;4.03;2.22;;;18.20;99.90;;;19.79;60.36;97332.06;5033443;28;20297;-52
2023/07/05 07:05:56;;;;;;;2.58;1.63;;;18.10;99.90;;;19.70;60.56;97352.28;5031150;28;20507;-52
2023/07/05 07:08:33;;;;;;;3.60;1.80;;;18.00;99.90;;;19.58;60.90;97352.22;5033715;28;20260;-55
2023/07/05 07:11:03;;;;;;;2.72;1.55;;;18.00;99.90;;;19.50;61.40;97364.16;5023137;28;20045;-56
2023/07/05 07:13:32;;;;;;;2.60;1.63;;;18.00;99.90;;;19.53;61.40;97365.59;5032244;28;20053;-53
2023/07/05 07:16:04;;;;;;;;;;;18.00;99.90;;;19.53;62.08;97363.72;5034638;28;20413;-56
2023/07/05 07:18:36;;;;;;;2.97;1.83;;;18.00;99.90;;;19.64;61.19;97371.06;5034003;28;19928;-50
2023/07/05 07:21:08;;;;;;;3.58;2.03;;;18.00;99.90;;;19.39;62.04;97371.16;5033930;28;20057;-55
2023/07/05 07:23:37;;;;;;;2.85;2.20;;;17.90;99.90;;;19.50;62.13;97377.66;5032763;28;20527;-54
2023/07/05 07:26:06;;;;;;;7.03;2.20;;;17.80;99.90;;;19.62;62.24;97381.28;5033734;28;20049;-51
2023/07/05 07:28:34;;;;;;;3.95;2.33;;;18.00;99.90;;;19.61;62.02;97385.00;5033846;28;20060;-53
2023/07/05 07:31:16;;;;;;;2.42;1.80;;;18.00;99.90;;;19.62;61.71;97388.56;5033853;28;20045;-52
2023/07/05 07:33:45;;;;;;;2.83;1.73;;;18.10;99.90;;;19.55;61.24;97401.31;5032331;28;20401;-53
2023/07/05 07:36:17;;;;;;;4.32;2.10;;;18.00;99.90;;;19.46;60.59;97392.66;5049417;28;20441;-54
2023/07/05 07:38:45;;;;;;;5.13;2.40;;;17.90;99.90;;;19.43;60.34;97403.91;5034255;28;20045;-54
2023/07/05 07:41:37;;;;;;;4.50;2.10;;;17.80;99.90;;;19.27;60.83;97395.34;5033256;28;20038;-54
2023/07/05 07:44:08;;;;;;;2.85;2.20;;;17.70;99.90;;;19.30;61.36;97399.47;5033769;28;20041;-53
2023/07/05 07:46:39;;;;;;;4.05;2.00;;;17.80;99.90;;;19.17;61.23;97413.91;5032166;28;20050;-55
2023/07/05 07:49:09;;;;;;;3.35;2.15;;;17.80;99.90;;;19.31;61.57;97414.63;5032025;28;20049;-55
2023/07/05 07:51:40;;;;;;;3.53;2.45;;;17.90;99.90;;;19.22;61.31;97426.75;5033422;28;20049;-58
2023/07/05 07:54:16;;;;;;;6.32;2.30;;;18.00;99.90;;;19.07;61.26;97424.38;5033553;28;20049;-58
2023/07/05 07:56:47;;;;;;;3.78;2.70;;;17.80;99.90;;;19.32;60.79;97428.94;5031919;28;20048;-56
2023/07/05 07:59:16;;;;;;;4.80;2.85;;;17.90;99.90;;;19.46;60.01;97427.75;5033325;28;20056;-57
2023/07/05 08:01:44;;;;;;;3.72;2.40;;;18.10;99.90;;;19.44;59.64;97438.78;5033286;28;20045;-57
2023/07/05 08:04:14;;;;;;;5.78;3.13;;;18.10;98.30;;;19.33;59.68;97430.56;5033186;28;20060;-56
2023/07/05 08:06:49;;;;;;;5.00;2.80;;;18.00;99.60;;;19.25;58.74;97442.47;5033949;28;20050;-56
2023/07/05 08:09:22;;;;;;;6.28;3.05;;;17.90;95.80;;;19.22;57.20;97440.25;5032676;28;20050;-56
2023/07/05 08:11:49;;;;;;;4.25;2.67;;;17.80;91.90;;;19.18;57.56;97442.56;5033264;28;20049;-56
2023/07/05 08:14:18;;;;;;;4.05;2.70;;;17.70;94.20;;;19.28;56.92;97423.16;5032535;28;20076;-57
2023/07/05 08:16:46;;;;;;;7.10;4.50;;;17.70;92.70;;;18.94;57.38;97430.72;5033449;28;20052;-57
2023/07/05 08:19:15;;;;;;;8.45;3.28;;;17.50;93.40;;;19.13;57.37;97430.78;5033035;28;20049;-56
2023/07/05 08:21:44;;;;;;;4.50;3.72;;;17.80;93.90;;;19.22;57.08;97438.34;5032996;28;20041;-57
2023/07/05 08:24:14;;;;;;;6.85;3.58;;;17.90;91.40;;;19.33;56.14;97442.22;5033191;28;20057;-57
2023/07/05 08:26:54;;;;;;;5.68;3.15;;;18.10;88.00;;;19.22;55.29;97442.94;5033111;28;20049;-57
2023/07/05 08:29:22;;;;;;;4.68;2.88;;;18.00;85.70;;;19.20;55.92;97448.56;5032891;28;20045;-55
2023/07/05 08:31:50;;;;;;;5.45;3.38;;;18.00;88.10;;;18.83;55.71;97448.44;5032808;28;20078;-56
2023/07/05 08:34:19;;;;;;;4.20;3.13;;;17.70;86.00;;;18.91;55.71;97457.31;5032945;28;20045;-56
2023/07/05 08:36:46;;;;;;;9.18;3.45;;;17.70;86.60;;;18.88;55.68;97448.63;5032815;28;20038;-57
2023/07/05 08:39:15;;;;;;;7.00;3.28;;;17.80;86.00;;;18.83;56.51;97455.72;5033258;28;20041;-40
2023/07/05 08:41:43;;;;;;;4.80;3.25;;;17.80;88.20;;;19.07;56.42;97457.56;5032481;28;20501;-41
2023/07/05 08:44:27;;;;;;;4.18;3.15;;;18.00;87.90;;;19.44;56.42;97459.53;5032652;28;20045;-43
2023/07/05 08:47:38;;;;;;;4.78;3.28;;;18.30;87.60;;;19.52;54.98;97450.34;5031672;28;20366;-45
2023/07/05 08:50:18;;;;;;;5.25;3.25;;;18.50;83.10;;;19.45;53.55;97467.44;5030704;28;20041;-44
2023/07/05 08:53:10;;;;;;;4.43;3.65;;;18.40;79.10;;;19.30;53.78;97464.25;5031045;28;20059;-41
2023/07/05 08:55:55;;;;;;;5.70;3.70;;;18.30;81.00;;;19.31;53.99;97473.16;5032225;28;20053;-44
2023/07/05 08:58:26;;;;;;;5.50;3.97;;;18.30;80.30;;;19.43;53.16;97472.22;5032336;28;20045;-45
2023/07/05 09:01:05;;;;;;;4.50;2.78;;;18.30;80.50;;;19.46;52.43;97465.53;5031562;28;20057;-43
2023/07/05 09:03:33;;;;;;;4.65;3.45;;;18.30;78.20;;;19.18;53.51;97466.03;5031361;28;20060;-43
2023/07/05 09:06:08;;;;;;;6.63;3.17;;;18.10;80.20;;;19.35;53.50;97477.91;5032023;28;20501;-42
2023/07/05 09:09:05;;;;;;;6.03;3.50;;;18.20;80.70;;;19.42;54.06;97467.84;5031140;28;20053;-44
2023/07/05 09:12:01;;;;;;;5.78;3.67;;;18.30;81.20;;;19.58;53.57;97463.78;5025018;28;20428;-43
2023/07/05 09:15:23;;;;;;;6.38;3.58;;;18.50;80.00;;;19.90;53.20;97460.16;5025874;28;20046;-45
2023/07/05 09:18:45;;;;;;;5.90;2.92;;;18.80;79.60;;;19.78;51.07;97466.28;5024600;28;20053;-44
2023/07/05 09:21:34;;;;;;;5.20;3.95;;;19.00;73.10;;;19.64;50.75;97478.25;5032147;28;20057;-44
2023/07/05 09:24:30;;;;;;;4.88;3.60;;;18.80;71.90;;;19.65;49.88;97483.41;5019320;28;20045;-42
2023/07/05 09:27:24;;;;;;;4.78;3.45;;;18.70;68.90;;;19.58;50.15;97482.69;5024912;28;20049;-42
2023/07/05 09:30:10;;;;;;;7.85;3.25;;;18.70;70.30;;;19.68;49.27;97468.66;5025714;28;20060;-41
2023/07/05 09:32:41;;;;;;;5.25;3.80;;;18.90;68.30;;;19.83;47.94;97477.25;5027785;28;20064;-43
2023/07/05 09:35:26;;;;;;;5.55;3.20;;;19.00;66.00;;;19.69;47.63;97494.59;5024960;28;20068;-44
2023/07/05 09:38:30;;;;;;;5.93;3.15;;;18.90;65.10;;;19.81;47.25;97486.63;5025528;28;20060;-41
2023/07/05 09:41:17;;;;;;;6.00;3.75;;;19.00;64.20;;;20.06;47.09;97481.16;5022236;28;20061;-44
2023/07/05 09:43:45;;;;;;;5.80;3.85;;;19.10;64.50;;;20.00;46.68;97485.56;5022357;28;20337;-42
2023/07/05 09:46:35;;;;;;;5.97;3.53;;;19.20;63.50;;;20.13;46.26;97470.28;5024013;28;20042;-42
2023/07/05 09:49:12;;;;;;;4.32;3.28;;;19.20;62.00;;;19.93;45.51;97478.59;5040998;28;20385;-42
2023/07/05 09:51:42;;;;;;;4.32;3.30;;;19.30;60.00;;;20.17;46.08;97493.91;5027793;28;20037;-43
2023/07/05 09:54:30;;;;;;;5.15;3.65;;;19.40;61.50;;;20.39;45.47;97498.84;5023458;28;20045;-43
2023/07/05 09:57:06;;;;;;;6.55;3.53;;;19.60;59.90;;;20.46;44.60;97488.78;5023871;28;20048;-44
2023/07/05 09:59:34;;;;;;;6.13;3.65;;;19.60;59.20;;;20.52;44.25;97493.25;5023369;28;20056;-43
2023/07/05 10:02:12;;;;;;;5.22;3.53;;;19.60;57.30;;;20.55;42.08;97494.66;5024444;28;20057;-43
2023/07/05 10:04:53;;;;;;;4.03;3.10;;;19.60;54.90;;;20.64;42.46;97493.34;5025086;28;20053;-45
2023/07/05 10:07:28;;;;;;;4.55;3.00;;;19.70;54.40;;;20.73;42.01;97489.25;5023826;28;20053;-44
2023/07/05 10:09:57;;;;;;;4.53;3.28;;;19.80;54.50;;;20.85;41.66;97490.09;5020052;28;20049;-47
2023/07/05 10:12:32;;;;;;;5.07;3.00;;;19.90;53.70;;;20.77;41.80;97495.03;5026744;28;20049;-42
2023/07/05 10:15:01;;;;;;;5.05;3.33;;;19.90;53.30;;;20.88;42.40;97502.38;5030682;28;20382;-44
2023/07/05 10:17:42;;;;;;;5.20;3.78;;;20.00;54.20;;;20.91;41.22;97493.78;5030783;28;20535;-42
2023/07/05 10:20:23;;;;;;;4.82;3.17;;;20.00;51.90;;;20.89;40.45;97514.81;5030704;28;20059;-42
2023/07/05 10:23:04;;;;;;;4.32;2.92;;;20.00;51.10;;;20.83;40.16;97500.34;5031154;28;20038;-43
2023/07/05 10:25:38;;;;;;;4.85;3.03;;;20.00;50.70;;;20.90;39.73;97499.41;5030551;28;20049;-42
2023/07/05 10:28:06;;;;;;;;;;;20.00;50.50;;;20.77;39.46;97505.84;5030147;28;20045;-40
2023/07/05 10:30:52;;;;;;;5.45;3.10;;;20.00;49.90;;;20.99;40.50;97498.03;5013100;28;19921;-40
2023/07/05 10:33:30;;;;;;;5.00;3.10;;;20.30;50.60;;;20.95;39.63;97513.09;5030395;28;20049;-42
2023/07/05 10:36:05;;;;;;;3.72;2.80;;;20.30;49.50;;;21.19;38.97;97509.38;5032844;28;20041;-40
2023/07/05 10:38:48;;;;;;;5.78;3.20;;;20.40;48.20;;;21.10;38.29;97510.78;5034921;28;20382;-43
2023/07/05 10:41:28;;;;;;;4.13;2.73;;;20.40;46.80;;;21.15;36.46;97524.44;5026512;28;20041;-45
2023/07/05 10:44:09;;;;;;;9.30;3.78;;;20.40;44.50;;;21.35;36.55;97516.00;5030505;28;20046;-44
2023/07/05 10:46:38;;;;;;;3.13;2.47;;;20.60;44.90;;;21.61;37.59;97514.72;5030281;28;20038;-46